Time;durP1;ratioP1;P1;durP2;ratioP2;P2;SDS_P1;SDS_P2;PMS_P1;PMS_P2;Temp;Humidity;BMP_temperature;BMP_pressure;BME280_temperature;BME280_humidity;BME280_pressure;Samples;Min_cycle;Max_cycle;Signal;HPM_P1;HPM_P2
2022/07/02 00:01:00;;;;;;;2.92;1.60;;;14.00;99.90;;;;;;5090741;28;20040;-66
2022/07/02 00:03:36;;;;;;;3.00;1.80;;;13.90;99.90;;;;;;5088423;28;20505;-66
2022/07/02 00:06:04;;;;;;;4.88;2.03;;;13.90;99.90;;;;;;5086620;28;20035;-65
2022/07/02 00:08:31;;;;;;;3.15;2.05;;;13.90;99.90;;;;;;5086655;28;20142;-66
2022/07/02 00:10:59;;;;;;;4.30;2.08;;;13.90;99.90;;;;;;5088746;28;20413;-66
2022/07/02 00:13:26;;;;;;;4.72;1.70;;;13.90;99.90;;;;;;5073403;28;20052;-66
2022/07/02 00:15:52;;;;;;;2.78;1.95;;;13.90;99.90;;;;;;5090213;28;20097;-66
2022/07/02 00:18:19;;;;;;;6.15;2.20;;;13.80;99.90;;;;;;5089174;28;20479;-64
2022/07/02 00:20:45;;;;;;;4.57;2.00;;;13.80;99.90;;;;;;5087133;28;20089;-67
2022/07/02 00:23:11;;;;;;;3.47;2.03;;;13.80;99.90;;;;;;5089768;28;20083;-67
2022/07/02 00:25:39;;;;;;;3.97;2.35;;;13.80;99.90;;;;;;5088888;28;20072;-65
2022/07/02 00:28:11;;;;;;;4.00;2.13;;;13.80;99.90;;;;;;5089577;28;20514;-66
2022/07/02 00:30:46;;;;;;;4.32;1.90;;;13.70;99.90;;;;;;5090236;28;20036;-66
2022/07/02 00:33:16;;;;;;;3.13;2.00;;;13.70;99.90;;;;;;5087928;28;20557;-66
2022/07/02 00:35:42;;;;;;;4.38;2.20;;;13.70;99.90;;;;;;5088045;28;20046;-66
2022/07/02 00:38:08;;;;;;;3.72;2.03;;;13.70;99.90;;;;;;5090489;28;20044;-66
2022/07/02 00:40:34;;;;;;;3.63;1.98;;;13.70;99.90;;;;;;5087223;28;20863;-66
2022/07/02 00:43:01;;;;;;;4.18;2.28;;;13.70;99.90;;;;;;5085427;28;20044;-66
2022/07/02 00:45:27;;;;;;;2.80;2.25;;;13.60;99.90;;;;;;5089588;28;20044;-66
2022/07/02 00:47:57;;;;;;;3.45;2.08;;;13.60;99.90;;;;;;5086575;28;20051;-66
2022/07/02 00:50:23;;;;;;;4.38;2.08;;;13.50;99.90;;;;;;5089761;28;20035;-65
2022/07/02 00:52:50;;;;;;;5.78;2.30;;;13.50;99.90;;;;;;5088325;28;20374;-66
2022/07/02 00:55:16;;;;;;;3.30;2.20;;;13.50;99.90;;;;;;5086308;28;20036;-65
2022/07/02 00:57:45;;;;;;;4.35;2.33;;;13.50;99.90;;;;;;5090419;28;20057;-66
2022/07/02 01:00:13;;;;;;;3.97;2.05;;;13.50;99.90;;;;;;5091357;28;20079;-64
2022/07/02 01:02:44;;;;;;;3.88;2.22;;;13.50;99.90;;;;;;5089123;28;20051;-67
2022/07/02 01:05:13;;;;;;;3.08;1.90;;;13.40;99.90;;;;;;5088996;28;20040;-66
2022/07/02 01:07:42;;;;;;;5.35;2.30;;;13.40;99.90;;;;;;5088350;28;20074;-67
2022/07/02 01:10:19;;;;;;;4.80;2.30;;;13.40;99.90;;;;;;5088637;28;20039;-66
2022/07/02 01:12:46;;;;;;;3.75;2.20;;;13.40;99.90;;;;;;5088425;28;20120;-66
2022/07/02 01:15:12;;;;;;;5.35;2.15;;;13.40;99.90;;;;;;5084872;28;20036;-66
2022/07/02 01:17:38;;;;;;;4.32;2.40;;;13.30;99.90;;;;;;5089497;28;20036;-67
2022/07/02 01:20:04;;;;;;;5.22;2.50;;;13.30;99.90;;;;;;5089393;28;20603;-66
2022/07/02 01:22:44;;;;;;;5.18;2.58;;;13.30;99.90;;;;;;5088971;28;20044;-66
2022/07/02 01:25:09;;;;;;;3.53;2.40;;;13.30;99.90;;;;;;5086631;28;20044;-66
2022/07/02 01:27:35;;;;;;;4.18;2.50;;;13.20;99.90;;;;;;5087170;28;20066;-65
2022/07/02 01:30:01;;;;;;;5.53;2.63;;;13.20;99.90;;;;;;5070754;28;20800;-66
2022/07/02 01:32:27;;;;;;;4.28;2.63;;;13.20;99.90;;;;;;5088606;28;20368;-65
2022/07/02 01:35:08;;;;;;;3.15;2.60;;;13.20;99.90;;;;;;5119289;27;20047;-67
2022/07/02 01:37:37;;;;;;;4.20;2.70;;;13.20;99.90;;;;;;5100786;28;20055;-67
2022/07/02 01:40:04;;;;;;;4.90;2.83;;;13.20;99.90;;;;;;5087776;28;20074;-66
2022/07/02 01:42:30;;;;;;;3.33;2.63;;;13.10;99.90;;;;;;5085295;28;20047;-64
2022/07/02 01:44:55;;;;;;;3.88;2.78;;;13.10;99.90;;;;;;5086515;28;20028;-66
2022/07/02 01:47:21;;;;;;;4.72;3.17;;;13.10;99.90;;;;;;5089874;28;20024;-67
2022/07/02 01:49:47;;;;;;;9.07;3.40;;;13.10;99.90;;;;;;5089301;28;20123;-66
2022/07/02 01:52:15;;;;;;;5.82;3.10;;;13.00;99.90;;;;;;5084803;28;20036;-67
2022/07/02 01:54:41;;;;;;;3.63;3.10;;;13.00;99.90;;;;;;5084447;28;20064;-65
2022/07/02 01:57:07;;;;;;;4.10;2.95;;;13.10;99.90;;;;;;5088348;28;20052;-66
2022/07/02 01:59:34;;;;;;;6.20;2.80;;;13.00;99.90;;;;;;5089601;28;20032;-67
2022/07/02 02:02:00;;;;;;;8.57;3.10;;;13.00;99.90;;;;;;5087261;28;20052;-65
2022/07/02 02:04:26;;;;;;;5.38;3.10;;;13.00;99.90;;;;;;5090062;28;20040;-65
2022/07/02 02:06:52;;;;;;;5.70;2.95;;;13.00;99.90;;;;;;5088136;28;20036;-65
2022/07/02 02:09:19;;;;;;;5.07;3.17;;;13.00;99.90;;;;;;5087738;28;20071;-65
2022/07/02 02:11:45;;;;;;;6.07;3.15;;;13.00;99.90;;;;;;5085147;28;20119;-66
2022/07/02 02:14:11;;;;;;;6.70;3.42;;;13.00;99.90;;;;;;5071552;28;20123;-66
2022/07/02 02:16:37;;;;;;;5.88;2.97;;;13.00;99.90;;;;;;5089335;28;20551;-67
2022/07/02 02:19:02;;;;;;;3.50;3.15;;;13.00;99.90;;;;;;5080901;28;20048;-67
2022/07/02 02:21:29;;;;;;;4.10;3.40;;;13.00;99.90;;;;;;5078051;28;20044;-66
2022/07/02 02:23:56;;;;;;;5.47;3.38;;;13.00;99.90;;;;;;5082576;28;20494;-66
2022/07/02 02:26:22;;;;;;;4.95;3.10;;;13.00;99.90;;;;;;5089164;28;20052;-66
2022/07/02 02:28:48;;;;;;;3.85;3.15;;;13.00;99.90;;;;;;5085165;28;20043;-65
2022/07/02 02:31:14;;;;;;;4.47;3.13;;;13.00;99.90;;;;;;5086570;28;20160;-67
2022/07/02 02:33:41;;;;;;;8.43;3.47;;;13.00;99.90;;;;;;5087196;28;20115;-65
2022/07/02 02:36:07;;;;;;;5.40;3.33;;;13.00;99.90;;;;;;5089655;28;20093;-66
2022/07/02 02:38:36;;;;;;;4.38;3.13;;;13.00;99.90;;;;;;5088358;28;20040;-65
2022/07/02 02:41:05;;;;;;;7.38;3.25;;;13.00;99.90;;;;;;5087262;28;20498;-67
2022/07/02 02:43:34;;;;;;;5.85;3.47;;;13.00;99.90;;;;;;5117295;27;20051;-66
2022/07/02 02:46:01;;;;;;;7.50;3.38;;;13.00;99.90;;;;;;5087696;28;20048;-65
2022/07/02 02:48:28;;;;;;;3.60;3.17;;;13.00;99.90;;;;;;5084792;28;20031;-65
2022/07/02 02:50:54;;;;;;;6.03;3.35;;;12.90;99.90;;;;;;5087965;28;20040;-66
2022/07/02 02:53:19;;;;;;;4.57;3.47;;;12.90;99.90;;;;;;5086764;28;20040;-65
2022/07/02 02:55:45;;;;;;;6.55;3.85;;;12.90;99.90;;;;;;5088943;28;20505;-67
2022/07/02 02:58:10;;;;;;;6.03;3.90;;;12.90;99.90;;;;;;5087307;28;20044;-66
2022/07/02 03:00:36;;;;;;;4.95;3.90;;;12.90;99.90;;;;;;5086228;28;20033;-65
2022/07/02 03:03:02;;;;;;;4.38;3.92;;;12.90;99.90;;;;;;5121975;28;20479;-68
2022/07/02 03:05:27;;;;;;;5.15;3.97;;;12.90;99.90;;;;;;5087629;28;20127;-66
2022/07/02 03:07:53;;;;;;;7.50;4.03;;;12.90;99.90;;;;;;5091517;28;20040;-64
2022/07/02 03:10:19;;;;;;;6.18;4.20;;;12.90;99.90;;;;;;5090565;28;20040;-66
2022/07/02 03:12:44;;;;;;;7.38;4.60;;;12.90;99.90;;;;;;5092672;28;20116;-66
2022/07/02 03:15:10;;;;;;;4.90;4.05;;;12.90;99.90;;;;;;5089454;28;20137;-66
2022/07/02 03:17:36;;;;;;;8.38;4.32;;;12.90;99.90;;;;;;5090436;28;20040;-66
2022/07/02 03:20:02;;;;;;;8.05;4.40;;;12.90;99.90;;;;;;5090452;28;20151;-68
2022/07/02 03:22:28;;;;;;;7.43;4.68;;;12.90;99.90;;;;;;5071406;28;21011;-66
2022/07/02 03:24:53;;;;;;;6.32;4.22;;;12.90;99.90;;;;;;5086071;28;20039;-67
2022/07/02 03:27:19;;;;;;;5.03;4.32;;;12.90;99.90;;;;;;5088452;28;20052;-66
2022/07/02 03:29:45;;;;;;;5.65;4.05;;;12.90;99.90;;;;;;5088863;28;20039;-66
2022/07/02 03:32:11;;;;;;;7.65;4.07;;;12.90;99.90;;;;;;5087714;28;20039;-66
2022/07/02 03:34:36;;;;;;;10.38;4.55;;;12.90;99.90;;;;;;5123373;27;20046;-66
2022/07/02 03:37:03;;;;;;;5.90;4.13;;;12.90;99.90;;;;;;5091092;28;20040;-67
2022/07/02 03:39:29;;;;;;;7.38;4.80;;;12.90;99.90;;;;;;5089554;28;20043;-67
2022/07/02 03:41:55;;;;;;;5.40;4.47;;;12.90;99.90;;;;;;5088958;28;20493;-66
2022/07/02 03:44:20;;;;;;;6.32;4.85;;;13.00;99.90;;;;;;5086556;28;20494;-66
2022/07/02 03:46:46;;;;;;;7.88;4.70;;;13.00;99.90;;;;;;5089507;28;20518;-65
2022/07/02 03:49:11;;;;;;;6.47;4.85;;;13.00;99.90;;;;;;5091016;28;20031;-66
2022/07/02 03:51:37;;;;;;;5.90;4.88;;;13.00;99.90;;;;;;5090679;28;20039;-65
2022/07/02 03:54:04;;;;;;;5.20;4.30;;;13.00;99.90;;;;;;5091267;28;20109;-67
2022/07/02 03:56:29;;;;;;;5.63;4.32;;;13.00;99.90;;;;;;5091226;28;20474;-65
2022/07/02 03:58:55;;;;;;;5.28;4.20;;;13.10;99.90;;;;;;5093133;28;20047;-66
2022/07/02 04:01:20;;;;;;;5.65;4.78;;;13.10;99.90;;;;;;5122367;27;20074;-67
2022/07/02 04:03:46;;;;;;;7.68;4.65;;;13.10;99.90;;;;;;5091818;28;20475;-67
2022/07/02 04:06:12;;;;;;;6.47;4.95;;;13.10;99.90;;;;;;5120962;27;20046;-66
2022/07/02 04:08:37;;;;;;;9.68;6.05;;;13.20;99.90;;;;;;5089519;28;20061;-66
2022/07/02 04:11:03;;;;;;;7.85;5.05;;;13.20;99.90;;;;;;5121244;27;20036;-66
2022/07/02 04:13:28;;;;;;;8.00;4.95;;;13.30;99.90;;;;;;5091501;28;20036;-66
2022/07/02 04:15:55;;;;;;;8.23;5.25;;;13.30;99.90;;;;;;5113032;27;20040;-67
2022/07/02 04:18:21;;;;;;;6.68;5.20;;;13.30;99.90;;;;;;5080852;28;20196;-67
2022/07/02 04:20:47;;;;;;;7.13;4.90;;;13.30;99.90;;;;;;5118105;27;20060;-67
2022/07/02 04:23:12;;;;;;;7.03;5.20;;;13.40;99.90;;;;;;5092074;28;20050;-66
2022/07/02 04:25:38;;;;;;;6.47;4.97;;;13.40;99.90;;;;;;5089471;28;20064;-66
2022/07/02 04:28:04;;;;;;;8.27;5.25;;;13.50;99.90;;;;;;5089917;28;20048;-66
2022/07/02 04:30:30;;;;;;;7.57;4.95;;;13.50;99.90;;;;;;5091872;28;20022;-65
2022/07/02 04:32:56;;;;;;;5.97;5.03;;;13.50;99.90;;;;;;5087278;28;20096;-65
2022/07/02 04:35:21;;;;;;;8.15;5.40;;;13.60;99.90;;;;;;5080279;28;20122;-66
2022/07/02 04:37:47;;;;;;;9.25;4.95;;;13.60;99.90;;;;;;5089134;28;20436;-66
2022/07/02 04:40:13;;;;;;;5.03;4.30;;;13.60;99.90;;;;;;5089589;28;20421;-67
2022/07/02 04:42:39;;;;;;;7.35;5.35;;;13.70;99.90;;;;;;5074073;28;20035;-64
2022/07/02 04:45:05;;;;;;;6.57;5.00;;;13.80;99.90;;;;;;5091133;28;20052;-67
2022/07/02 04:47:31;;;;;;;8.40;5.38;;;13.80;99.90;;;;;;5115571;27;20044;-65
2022/07/02 04:49:57;;;;;;;5.15;4.65;;;13.90;99.90;;;;;;5090537;28;20048;-65
2022/07/02 04:52:23;;;;;;;6.72;5.35;;;14.00;99.90;;;;;;5089135;28;20115;-66
2022/07/02 04:54:49;;;;;;;7.35;5.05;;;14.00;99.90;;;;;;5088333;28;20384;-66
2022/07/02 04:57:15;;;;;;;6.65;5.00;;;14.10;99.90;;;;;;5087168;28;20048;-66
2022/07/02 04:59:44;;;;;;;6.65;4.75;;;14.20;99.90;;;;;;5088814;28;20402;-66
2022/07/02 05:02:10;;;;;;;6.47;4.70;;;14.20;99.90;;;;;;5091049;28;20414;-67
2022/07/02 05:04:36;;;;;;;5.13;4.57;;;14.40;99.90;;;;;;5090513;28;20051;-66
2022/07/02 05:07:02;;;;;;;8.00;4.50;;;14.50;99.90;;;;;;5089630;28;20036;-65
2022/07/02 05:09:27;;;;;;;7.25;4.85;;;14.60;99.90;;;;;;5085992;28;20052;-66
2022/07/02 05:11:53;;;;;;;6.82;4.47;;;14.70;99.90;;;;;;5089129;28;20498;-66
2022/07/02 05:14:19;;;;;;;8.75;5.00;;;14.80;99.90;;;;;;5090189;28;20498;-65
2022/07/02 05:16:44;;;;;;;7.47;4.63;;;14.80;99.90;;;;;;5087701;28;20047;-66
2022/07/02 05:19:10;;;;;;;8.95;5.03;;;14.90;99.90;;;;;;5087882;28;20563;-65
2022/07/02 05:21:37;;;;;;;7.22;4.78;;;15.00;99.90;;;;;;5083207;28;20048;-66
2022/07/02 05:24:03;;;;;;;6.35;3.95;;;15.10;99.90;;;;;;5084751;28;20047;-65
2022/07/02 05:26:29;;;;;;;6.57;4.65;;;15.20;99.90;;;;;;5079948;28;20056;-66
2022/07/02 05:28:55;;;;;;;6.60;4.40;;;15.30;99.90;;;;;;5085044;28;20084;-65
2022/07/02 05:31:21;;;;;;;5.68;4.47;;;15.40;99.90;;;;;;5086981;28;20841;-66
2022/07/02 05:33:46;;;;;;;6.65;4.60;;;15.50;99.90;;;;;;5083251;28;20142;-66
2022/07/02 05:36:12;;;;;;;8.18;4.30;;;15.60;99.90;;;;;;5080980;28;20131;-66
2022/07/02 05:38:38;;;;;;;5.03;3.97;;;15.70;99.90;;;;;;5080948;28;20035;-65
2022/07/02 05:41:03;;;;;;;5.15;4.00;;;15.90;99.90;;;;;;5117430;27;20426;-67
2022/07/02 05:43:29;;;;;;;4.88;4.05;;;16.00;99.90;;;;;;5060301;28;20554;-66
2022/07/02 05:45:55;;;;;;;4.35;3.63;;;16.10;99.90;;;;;;5087622;28;20166;-67
2022/07/02 05:48:20;;;;;;;6.25;3.47;;;16.20;99.90;;;;;;5079226;28;20032;-66
2022/07/02 05:50:46;;;;;;;5.90;3.63;;;16.20;99.90;;;;;;5080555;28;20040;-65
2022/07/02 05:53:13;;;;;;;4.10;3.40;;;16.30;99.90;;;;;;5082486;28;20043;-66
2022/07/02 05:55:39;;;;;;;4.57;2.90;;;16.40;99.90;;;;;;5080547;28;21472;-66
2022/07/02 05:58:05;;;;;;;5.85;2.92;;;16.30;99.90;;;;;;5079397;28;20040;-65
2022/07/02 06:00:31;;;;;;;5.95;3.05;;;16.50;99.90;;;;;;5085575;28;20118;-66
2022/07/02 06:02:56;;;;;;;5.00;2.63;;;16.50;99.90;;;;;;5082225;28;20115;-67
2022/07/02 06:08:07;;;;;;;3.28;2.25;;;16.60;99.90;;;;;;5076110;28;20142;-66
2022/07/02 06:10:33;;;;;;;5.72;2.30;;;16.70;99.90;;;;;;5083374;28;20405;-66
2022/07/02 06:12:59;;;;;;;5.15;2.42;;;16.80;99.90;;;;;;5062163;28;20055;-66
2022/07/02 06:15:24;;;;;;;5.55;2.22;;;16.80;99.90;;;;;;5062815;28;20161;-66
2022/07/02 06:17:50;;;;;;;4.18;2.42;;;17.00;99.90;;;;;;5080467;28;20482;-66
2022/07/02 06:20:16;;;;;;;5.10;2.38;;;17.00;99.90;;;;;;5084878;28;20123;-65
2022/07/02 06:22:41;;;;;;;4.88;2.38;;;17.10;99.90;;;;;;5113330;27;20089;-65
2022/07/02 06:25:08;;;;;;;3.65;2.00;;;17.20;99.90;;;;;;5114156;27;20052;-66
2022/07/02 06:27:34;;;;;;;6.65;2.55;;;17.20;99.90;;;;;;5085036;28;20051;-66
2022/07/02 06:30:04;;;;;;;7.05;2.85;;;17.20;99.90;;;;;;5069331;28;20059;-66
2022/07/02 06:32:31;;;;;;;4.70;2.60;;;17.30;99.90;;;;;;5082839;28;20074;-66
2022/07/02 06:34:57;;;;;;;5.70;2.33;;;17.20;99.90;;;;;;5059997;28;20098;-65
2022/07/02 06:37:23;;;;;;;3.67;2.15;;;17.20;99.90;;;;;;5083540;28;20152;-66
2022/07/02 06:39:49;;;;;;;6.43;2.45;;;17.30;99.90;;;;;;5084239;28;20052;-66
2022/07/02 06:42:18;;;;;;;4.00;2.33;;;17.40;99.90;;;;;;5087567;28;20052;-66
2022/07/02 06:44:45;;;;;;;4.93;2.63;;;17.60;99.90;;;;;;5086286;28;20039;-66
2022/07/02 06:47:10;;;;;;;3.75;2.10;;;17.60;99.90;;;;;;5088043;28;20052;-66
2022/07/02 06:49:36;;;;;;;4.63;2.33;;;17.60;99.90;;;;;;5069763;28;20806;-66
2022/07/02 06:52:02;;;;;;;3.70;2.22;;;17.80;99.90;;;;;;5083439;28;20036;-66
2022/07/02 06:54:28;;;;;;;5.65;2.30;;;17.70;99.90;;;;;;5084422;28;20127;-66
2022/07/02 06:56:53;;;;;;;4.40;2.60;;;17.70;99.90;;;;;;5086841;28;20214;-65
2022/07/02 06:59:19;;;;;;;4.05;2.30;;;17.80;99.90;;;;;;5117642;27;20102;-66
2022/07/02 07:01:45;;;;;;;4.07;2.33;;;17.80;99.90;;;;;;5084163;28;20083;-66
2022/07/02 07:04:10;;;;;;;4.38;1.98;;;18.00;99.90;;;;;;5085995;28;20111;-67
2022/07/02 07:06:37;;;;;;;3.50;1.88;;;18.20;99.90;;;;;;5112336;28;20384;-66
2022/07/02 07:09:03;;;;;;;4.97;2.25;;;18.20;99.90;;;;;;5087947;28;20082;-66
2022/07/02 07:11:28;;;;;;;5.38;1.83;;;18.30;99.90;;;;;;5083300;28;20460;-67
2022/07/02 07:13:54;;;;;;;3.35;1.63;;;18.40;99.90;;;;;;5085077;28;20024;-66
2022/07/02 07:16:20;;;;;;;6.05;1.35;;;18.40;99.90;;;;;;5118189;27;20052;-66
2022/07/02 07:21:31;;;;;;;2.83;0.70;;;18.50;99.90;;;;;;5085695;28;20048;-66
2022/07/02 07:23:56;;;;;;;2.88;0.88;;;18.50;99.90;;;;;;5087106;28;20048;-67
2022/07/02 07:26:22;;;;;;;2.20;0.80;;;18.50;99.90;;;;;;5088000;28;20453;-66
2022/07/02 07:28:48;;;;;;;2.20;1.00;;;18.50;99.90;;;;;;5086610;28;20040;-66
2022/07/02 07:31:16;;;;;;;1.77;0.70;;;18.50;99.90;;;;;;5087753;28;20039;-67
2022/07/02 07:33:41;;;;;;;1.92;0.70;;;18.60;99.90;;;;;;5087809;28;20040;-66
2022/07/02 07:36:07;;;;;;;4.05;1.10;;;18.60;99.90;;;;;;5087318;28;20405;-66
2022/07/02 07:38:33;;;;;;;4.82;1.05;;;18.70;99.90;;;;;;5086865;28;20102;-65
2022/07/02 07:40:58;;;;;;;3.63;0.98;;;18.80;99.90;;;;;;5087274;28;20077;-66
2022/07/02 07:43:24;;;;;;;1.77;0.77;;;18.80;99.90;;;;;;5115752;28;20055;-67
2022/07/02 07:45:49;;;;;;;2.65;0.88;;;18.90;99.90;;;;;;5089159;28;20032;-66
2022/07/02 07:48:15;;;;;;;2.60;0.90;;;18.90;99.90;;;;;;5087579;28;20146;-66
2022/07/02 07:50:41;;;;;;;3.72;0.80;;;19.20;99.90;;;;;;5089321;28;20032;-66
2022/07/02 07:53:06;;;;;;;3.05;0.80;;;19.40;99.90;;;;;;5090662;28;20509;-65
2022/07/02 07:55:32;;;;;;;3.92;0.90;;;19.60;99.90;;;;;;5093234;28;20054;-66
2022/07/02 07:57:58;;;;;;;2.25;0.88;;;19.70;99.90;;;;;;5091967;28;20031;-66
2022/07/02 08:00:24;;;;;;;2.63;0.88;;;19.70;99.90;;;;;;5092141;28;20063;-66
2022/07/02 08:02:49;;;;;;;24.10;3.65;;;19.90;99.90;;;;;;5091839;28;20036;-66
2022/07/02 08:05:15;;;;;;;2.30;0.80;;;20.00;99.90;;;;;;5092665;28;20550;-68
2022/07/02 08:07:41;;;;;;;1.90;0.60;;;20.20;99.90;;;;;;5092786;28;20046;-67
2022/07/02 08:10:08;;;;;;;2.85;0.70;;;20.10;99.90;;;;;;5090766;28;20443;-67
2022/07/02 08:12:34;;;;;;;1.20;0.80;;;20.10;99.90;;;;;;5088934;28;20047;-65
2022/07/02 08:15:00;;;;;;;1.00;0.50;;;20.00;99.90;;;;;;5092415;28;20035;-65
2022/07/02 08:17:29;;;;;;;1.95;0.63;;;20.10;99.90;;;;;;5091160;28;20040;-66
2022/07/02 08:19:57;;;;;;;2.03;0.65;;;20.20;99.90;;;;;;5092151;28;20131;-66
2022/07/02 08:22:23;;;;;;;2.10;0.68;;;20.30;99.90;;;;;;5125508;27;20040;-66
2022/07/02 08:24:50;;;;;;;1.40;0.70;;;20.50;99.90;;;;;;5092282;28;20032;-67
2022/07/02 08:27:16;;;;;;;1.83;0.85;;;20.60;99.90;;;;;;5091429;28;20518;-65
2022/07/02 08:29:41;;;;;;;2.35;0.60;;;20.70;99.50;;;;;;5092423;28;20036;-67
2022/07/02 08:32:07;;;;;;;0.47;0.47;;;20.70;99.20;;;;;;5091139;28;20494;-64
2022/07/02 08:34:34;;;;;;;1.65;0.50;;;20.60;98.30;;;;;;5091937;28;20035;-67
2022/07/02 08:37:00;;;;;;;0.70;0.32;;;20.70;98.00;;;;;;5088348;28;20047;-66
2022/07/02 08:39:26;;;;;;;1.95;0.50;;;20.60;97.70;;;;;;5090902;28;20048;-66
2022/07/02 08:41:53;;;;;;;0.70;0.50;;;20.80;97.90;;;;;;5089884;28;20043;-66
2022/07/02 08:44:24;;;;;;;1.60;0.60;;;20.80;96.80;;;;;;5090742;28;20117;-65
2022/07/02 08:46:51;;;;;;;6.85;0.80;;;20.80;96.20;;;;;;5090000;28;20040;-67
2022/07/02 08:49:20;;;;;;;1.58;0.60;;;20.90;97.00;;;;;;5072581;28;20413;-65
2022/07/02 08:52:07;;;;;;;1.73;0.60;;;21.00;96.30;;;;;;5073198;28;20459;-66
2022/07/02 08:54:34;;;;;;;1.52;0.50;;;21.10;97.00;;;;;;5073504;28;20048;-65
2022/07/02 08:57:02;;;;;;;1.00;0.50;;;21.30;97.40;;;;;;5092233;28;20352;-66
2022/07/02 08:59:32;;;;;;;2.17;0.55;;;21.60;97.40;;;;;;5089994;28;20180;-66
2022/07/02 09:02:01;;;;;;;2.05;0.57;;;21.80;96.60;;;;;;5089677;28;20076;-66
2022/07/02 09:04:27;;;;;;;1.90;0.60;;;21.90;96.70;;;;;;5089048;28;20459;-67
2022/07/02 09:06:57;;;;;;;1.10;0.40;;;21.90;95.60;;;;;;5090616;28;20055;-66
2022/07/02 09:09:28;;;;;;;1.17;0.35;;;22.00;95.30;;;;;;5090909;28;20113;-66
2022/07/02 09:11:54;;;;;;;1.85;0.40;;;21.90;94.30;;;;;;5090085;28;20032;-66
2022/07/02 09:14:21;;;;;;;1.23;0.50;;;21.90;94.90;;;;;;5078651;28;20040;-65
2022/07/02 09:16:50;;;;;;;3.47;0.40;;;22.20;95.00;;;;;;5089854;28;20046;-65
2022/07/02 09:19:17;;;;;;;1.80;0.52;;;22.10;95.20;;;;;;5089936;28;20152;-66
2022/07/02 09:21:46;;;;;;;0.70;0.32;;;22.30;94.90;;;;;;5120965;27;20046;-64
2022/07/02 09:24:12;;;;;;;1.20;0.40;;;22.30;94.10;;;;;;5091129;28;20048;-64
2022/07/02 09:26:38;;;;;;;0.55;0.38;;;22.30;95.00;;;;;;5089676;28;20402;-64
2022/07/02 09:29:04;;;;;;;1.00;0.40;;;22.20;94.10;;;;;;5089176;28;20171;-65
2022/07/02 09:31:47;;;;;;;0.93;0.50;;;22.30;95.20;;;;;;5072572;28;20044;-67
2022/07/02 09:34:27;;;;;;;1.25;0.60;;;22.20;92.50;;;;;;5081591;28;20040;-65
2022/07/02 09:36:53;;;;;;;2.13;0.50;;;22.30;93.60;;;;;;5088558;28;20268;-64
2022/07/02 09:39:31;;;;;;;1.42;0.50;;;22.50;94.60;;;;;;5089972;28;20722;-64
2022/07/02 09:41:57;;;;;;;2.30;0.60;;;22.30;93.10;;;;;;5088320;28;20047;-64
2022/07/02 09:44:26;;;;;;;0.93;0.40;;;22.40;92.40;;;;;;5089607;28;20097;-66
2022/07/02 09:46:52;;;;;;;0.95;0.40;;;22.10;91.90;;;;;;5089497;28;20493;-65
2022/07/02 09:49:17;;;;;;;1.60;0.68;;;22.00;92.20;;;;;;5090912;28;20078;-66
2022/07/02 09:51:51;;;;;;;1.98;0.40;;;22.20;92.30;;;;;;5088544;28;20043;-66
2022/07/02 09:54:23;;;;;;;0.77;0.30;;;22.20;92.30;;;;;;5085545;28;20043;-66
2022/07/02 09:56:56;;;;;;;1.45;0.50;;;22.10;91.50;;;;;;5089153;28;20054;-67
2022/07/02 09:59:23;;;;;;;1.40;0.52;;;22.10;91.70;;;;;;5090301;28;20032;-65
2022/07/02 10:01:49;;;;;;;1.02;0.45;;;22.40;93.00;;;;;;5089123;28;20036;-66
2022/07/02 10:04:15;;;;;;;1.02;0.45;;;22.80;92.40;;;;;;5090154;28;20043;-67
2022/07/02 10:06:44;;;;;;;0.55;0.38;;;22.90;92.10;;;;;;5090354;28;20043;-66
2022/07/02 10:09:11;;;;;;;2.85;0.82;;;23.10;91.80;;;;;;5122791;27;20044;-66
2022/07/02 10:11:37;;;;;;;1.77;0.40;;;23.30;93.00;;;;;;5090216;28;20429;-65
2022/07/02 10:14:04;;;;;;;1.67;0.82;;;23.10;91.60;;;;;;5088841;28;20047;-65
2022/07/02 10:16:30;;;;;;;1.20;0.50;;;23.20;92.60;;;;;;5089980;28;20044;-65
2022/07/02 10:18:58;;;;;;;2.20;0.60;;;23.10;92.00;;;;;;5090258;28;20040;-66
2022/07/02 10:21:24;;;;;;;1.00;0.35;;;23.20;91.90;;;;;;5089979;28;20549;-66
2022/07/02 10:23:51;;;;;;;0.98;0.70;;;23.20;91.10;;;;;;5090182;28;20081;-65
2022/07/02 10:26:17;;;;;;;1.70;0.60;;;23.10;90.80;;;;;;5088420;28;20044;-66
2022/07/02 10:28:43;;;;;;;1.92;0.50;;;23.10;90.70;;;;;;5088577;28;20043;-66
2022/07/02 10:31:17;;;;;;;1.20;0.40;;;22.90;89.80;;;;;;5071819;28;20036;-67
2022/07/02 10:34:24;;;;;;;1.75;0.63;;;22.90;90.20;;;;;;5088890;28;20382;-66
2022/07/02 10:36:50;;;;;;;1.33;0.50;;;22.60;89.30;;;;;;5088028;28;20116;-66
2022/07/02 10:39:16;;;;;;;1.83;0.50;;;22.60;90.10;;;;;;5090036;28;20044;-65
2022/07/02 10:41:42;;;;;;;1.55;0.30;;;22.90;91.00;;;;;;5090063;28;20043;-65
2022/07/02 10:44:09;;;;;;;0.73;0.30;;;23.10;91.00;;;;;;5088172;28;20044;-65
2022/07/02 10:46:36;;;;;;;1.23;0.50;;;22.90;91.50;;;;;;5088427;28;20364;-66
2022/07/02 10:49:05;;;;;;;3.95;0.50;;;22.80;90.90;;;;;;5071223;28;20059;-65
2022/07/02 10:51:35;;;;;;;1.65;0.40;;;22.40;89.20;;;;;;5088559;28;20043;-66
2022/07/02 10:54:08;;;;;;;2.03;0.40;;;22.30;88.90;;;;;;5071713;28;20409;-66
2022/07/02 10:56:46;;;;;;;2.78;0.40;;;22.60;90.00;;;;;;5122800;27;20036;-66
2022/07/02 10:59:22;;;;;;;1.63;0.50;;;22.90;90.40;;;;;;5122514;27;20115;-66
2022/07/02 11:02:00;;;;;;;0.90;0.38;;;23.30;89.70;;;;;;5088180;28;20126;-67
2022/07/02 11:04:26;;;;;;;1.95;0.50;;;23.00;87.40;;;;;;5089521;28;20044;-66
2022/07/02 11:07:04;;;;;;;3.05;0.40;;;22.90;89.50;;;;;;5122357;28;20453;-66
2022/07/02 11:09:29;;;;;;;2.25;0.38;;;23.30;90.50;;;;;;5089661;28;20395;-63
2022/07/02 11:12:02;;;;;;;1.00;0.40;;;23.30;90.60;;;;;;5089424;28;20032;-63
2022/07/02 11:14:31;;;;;;;1.58;0.50;;;23.40;90.70;;;;;;5089700;28;20066;-64
2022/07/02 11:16:57;;;;;;;3.17;0.77;;;23.70;90.60;;;;;;5088136;28;20039;-64
2022/07/02 11:19:26;;;;;;;0.80;0.30;;;23.70;90.00;;;;;;5090092;28;20115;-64
2022/07/02 11:21:54;;;;;;;0.63;0.40;;;24.00;89.90;;;;;;5090646;28;20437;-65
2022/07/02 11:24:26;;;;;;;1.25;0.40;;;24.10;89.40;;;;;;5085449;28;20449;-65
2022/07/02 11:26:52;;;;;;;0.88;0.50;;;24.40;89.50;;;;;;5090083;28;20123;-66
2022/07/02 11:29:18;;;;;;;1.77;0.55;;;24.50;89.10;;;;;;5091267;28;20083;-66
2022/07/02 11:31:50;;;;;;;1.33;0.40;;;24.80;88.80;;;;;;5094263;28;20064;-65
2022/07/02 11:34:19;;;;;;;1.92;0.57;;;24.80;88.20;;;;;;5091987;28;20042;-64
2022/07/02 11:36:45;;;;;;;1.48;0.50;;;24.60;87.60;;;;;;5093436;28;20528;-67
2022/07/02 11:39:16;;;;;;;2.20;0.50;;;24.80;88.60;;;;;;5093002;28;20040;-65
2022/07/02 11:41:42;;;;;;;1.55;0.55;;;24.70;89.30;;;;;;5092811;28;20061;-65
2022/07/02 11:44:16;;;;;;;2.13;0.47;;;24.50;88.10;;;;;;5090372;28;20127;-64
2022/07/02 11:46:43;;;;;;;2.38;0.57;;;24.50;89.40;;;;;;5091071;28;20131;-65
2022/07/02 11:49:17;;;;;;;1.90;0.60;;;24.60;90.10;;;;;;5091574;28;20044;-65
2022/07/02 11:51:44;;;;;;;1.85;0.50;;;24.50;88.70;;;;;;5091881;28;20039;-64
2022/07/02 11:54:11;;;;;;;2.13;0.50;;;24.40;87.30;;;;;;5091624;28;20101;-65
2022/07/02 11:56:38;;;;;;;2.13;0.55;;;24.20;86.90;;;;;;5092972;28;20044;-65
2022/07/02 11:59:06;;;;;;;1.70;0.47;;;23.90;88.00;;;;;;5092694;28;20036;-66
2022/07/02 12:01:33;;;;;;;1.50;0.50;;;23.50;88.50;;;;;;5091311;28;20119;-64
2022/07/02 12:04:02;;;;;;;3.90;0.65;;;23.10;87.90;;;;;;5089587;28;20070;-65
2022/07/02 12:06:33;;;;;;;3.53;0.50;;;23.00;88.60;;;;;;5090861;28;20134;-65
2022/07/02 12:09:00;;;;;;;2.85;0.65;;;22.90;87.70;;;;;;5090621;28;20115;-66
2022/07/02 12:11:26;;;;;;;1.17;0.60;;;23.00;87.90;;;;;;5091297;28;20044;-65
2022/07/02 12:13:54;;;;;;;2.13;0.40;;;23.10;89.20;;;;;;5092501;28;20039;-66
2022/07/02 12:16:23;;;;;;;2.25;0.68;;;23.20;89.50;;;;;;5092555;28;20405;-65
2022/07/02 12:19:07;;;;;;;1.38;0.40;;;23.20;89.20;;;;;;5067034;28;20134;-65
2022/07/02 12:21:39;;;;;;;1.63;0.68;;;23.30;91.10;;;;;;5091500;28;20379;-65
2022/07/02 12:24:24;;;;;;;2.85;0.63;;;23.30;90.80;;;;;;5091798;28;20044;-65
2022/07/02 12:27:03;;;;;;;1.60;0.50;;;23.20;89.90;;;;;;5074244;28;20150;-65
2022/07/02 12:32:24;;;;;;;2.22;0.68;;;23.10;90.40;;;;;;5090810;28;20494;-65
2022/07/02 12:34:54;;;;;;;1.25;0.50;;;23.00;89.70;;;;;;5091229;28;20043;-65
2022/07/02 12:37:23;;;;;;;0.60;0.40;;;23.00;89.70;;;;;;5091272;28;20043;-65
2022/07/02 12:39:57;;;;;;;2.97;0.73;;;23.10;90.50;;;;;;5090388;28;20192;-65
2022/07/02 12:42:23;;;;;;;1.42;0.50;;;23.10;90.40;;;;;;5087240;28;20051;-65
2022/07/02 12:44:53;;;;;;;1.67;0.40;;;23.10;90.60;;;;;;5091973;28;20398;-65
2022/07/02 12:47:43;;;;;;;3.75;1.15;;;23.00;90.70;;;;;;5092398;28;20029;-65
2022/07/02 12:50:14;;;;;;;1.92;0.50;;;22.90;89.50;;;;;;5089052;28;20056;-65
2022/07/02 12:52:47;;;;;;;0.93;0.60;;;22.70;90.00;;;;;;5088634;28;20123;-65
2022/07/02 12:55:36;;;;;;;2.17;0.60;;;22.70;90.00;;;;;;5090485;28;20158;-66
2022/07/02 12:58:09;;;;;;;1.08;0.50;;;22.80;90.70;;;;;;5089283;28;20409;-65